createdAt,value
2022-08-03T00:00:15.992Z,85.23
2022-08-03T00:05:17.871Z,85.34
2022-08-03T00:10:19.732Z,85.56
2022-08-03T00:15:21.661Z,85.59
2022-08-03T00:20:25.460Z,85.44
2022-08-03T00:25:27.464Z,84.97
2022-08-03T00:30:30.903Z,85.19
2022-08-03T00:35:50.199Z,85.51
2022-08-03T00:40:53.331Z,85.81
2022-08-03T00:45:57.268Z,85.17
2022-08-03T00:50:59.444Z,84.86
2022-08-03T00:56:01.434Z,85.08
2022-08-03T01:01:07.191Z,84.83
2022-08-03T01:06:29.665Z,84.46
2022-08-03T01:11:31.621Z,84.72
2022-08-03T01:16:40.301Z,84.83
2022-08-03T01:22:05.655Z,84.80
2022-08-03T01:27:09.635Z,85.05
2022-08-03T01:32:58.173Z,85.29
2022-08-03T01:37:38.901Z,85.55
2022-08-03T01:42:41.911Z,86.39
2022-08-03T01:47:44.722Z,86.83
2022-08-03T01:52:47.903Z,87.00
2022-08-03T01:58:05.336Z,87.04
2022-08-03T02:03:09.810Z,86.93
2022-08-03T02:08:13.303Z,86.84
2022-08-03T02:13:15.499Z,86.35
2022-08-03T02:18:19.240Z,86.02
2022-08-03T02:23:21.170Z,85.91
2022-08-03T02:28:28.750Z,85.91
2022-08-03T02:33:33.149Z,85.99
2022-08-03T02:38:36.923Z,86.11
2022-08-03T02:44:05.889Z,86.14
2022-08-03T02:49:49.446Z,86.08
2022-08-03T02:54:25.325Z,85.45
2022-08-03T02:59:28.480Z,84.87
2022-08-03T03:04:32.920Z,83.76
2022-08-03T03:09:40.177Z,82.62
2022-08-03T03:14:43.997Z,83.33
2022-08-03T03:19:46.382Z,82.85
2022-08-03T03:24:50.813Z,81.97
2022-08-03T03:29:53.128Z,81.33
2022-08-03T03:34:56.141Z,81.41
2022-08-03T03:39:58.365Z,81.22
2022-08-03T03:45:03.589Z,81.66
2022-08-03T03:50:06.699Z,82.15
2022-08-03T03:55:08.714Z,82.34
2022-08-03T04:00:15.021Z,82.45
2022-08-03T04:05:35.825Z,82.11
2022-08-03T04:10:58.946Z,81.94
2022-08-03T04:16:01.460Z,81.83
2022-08-03T04:21:04.635Z,81.56
2022-08-03T04:26:28.097Z,81.36
2022-08-03T04:31:40.053Z,81.11
2022-08-03T04:36:45.361Z,79.85
2022-08-03T04:42:07.257Z,77.11
2022-08-03T04:47:10.386Z,73.18
2022-08-03T04:52:12.422Z,69.45
2022-08-03T04:57:22.547Z,68.78
2022-08-03T05:02:28.733Z,69.77
2022-08-03T05:07:36.284Z,70.87
2022-08-03T05:13:00.081Z,72.35
2022-08-03T05:18:02.620Z,69.56
2022-08-03T05:23:04.495Z,64.35
2022-08-03T05:28:06.644Z,62.07
2022-08-03T05:33:08.503Z,61.96
2022-08-03T05:38:10.504Z,61.95
2022-08-03T05:43:12.521Z,62.81
2022-08-03T05:48:14.275Z,63.44
2022-08-03T05:53:16.703Z,64.75
2022-08-03T05:58:20.378Z,64.29
2022-08-03T06:03:22.502Z,63.59
2022-08-03T06:08:24.498Z,61.29
2022-08-03T06:13:26.413Z,59.26
2022-08-03T06:18:28.443Z,56.24
2022-08-03T06:23:54.039Z,53.00
2022-08-03T06:28:54.175Z,51.45
2022-08-03T06:34:32.954Z,51.15
2022-08-03T06:39:18.857Z,51.89
2022-08-03T06:44:21.227Z,53.46
2022-08-03T06:49:26.390Z,55.69
2022-08-03T06:54:28.375Z,55.75
2022-08-03T07:00:08.644Z,55.68
2022-08-03T07:05:12.135Z,56.92
2022-08-03T07:10:13.920Z,57.02
2022-08-03T07:15:20.621Z,56.57
2022-08-03T07:20:37.592Z,57.22
2022-08-03T07:25:39.361Z,56.57
2022-08-03T07:30:41.315Z,55.69
2022-08-03T07:35:43.189Z,54.52
2022-08-03T07:40:46.402Z,52.85
2022-08-03T07:45:48.446Z,52.20
2022-08-03T07:50:50.927Z,51.26
2022-08-03T07:55:55.119Z,50.52
2022-08-03T08:00:56.966Z,49.44
2022-08-03T08:06:05.391Z,48.55
2022-08-03T08:11:09.583Z,48.12
2022-08-03T08:16:12.322Z,47.66
2022-08-03T08:21:25.586Z,47.41
2022-08-03T08:26:47.762Z,46.99
2022-08-03T08:31:59.506Z,46.22
2022-08-03T08:37:04.411Z,45.83
2022-08-03T08:42:06.219Z,44.72
2022-08-03T08:47:08.333Z,44.24
2022-08-03T08:52:24.950Z,43.89
2022-08-03T08:57:43.287Z,43.38
2022-08-03T09:02:46.403Z,42.89
2022-08-03T09:07:48.844Z,42.50
2022-08-03T09:12:51.790Z,41.86
2022-08-03T09:17:55.700Z,41.42
2022-08-03T09:22:59.128Z,40.84
2022-08-03T09:28:05.028Z,39.67
2022-08-03T09:33:24.528Z,38.82
2022-08-03T09:38:41.092Z,38.32
2022-08-03T09:43:46.442Z,37.73
2022-08-03T09:48:48.090Z,38.55
2022-08-03T09:53:58.579Z,39.56
2022-08-03T09:59:01.663Z,38.29
2022-08-03T10:04:05.210Z,35.38
2022-08-03T10:09:07.465Z,37.43
2022-08-03T10:14:22.173Z,36.83
2022-08-03T10:19:25.722Z,36.28
2022-08-03T10:24:28.920Z,35.31
2022-08-03T10:29:40.172Z,33.64
2022-08-03T10:34:44.670Z,33.46
2022-08-03T10:39:56.492Z,33.37
2022-08-03T10:45:04.903Z,35.24
2022-08-03T10:50:07.649Z,35.05
2022-08-03T10:56:04.134Z,34.34
2022-08-03T11:01:15.368Z,33.72
2022-08-03T11:06:21.001Z,33.99
2022-08-03T11:11:24.030Z,31.09
2022-08-03T11:16:27.474Z,31.67
2022-08-03T11:21:49.216Z,31.98
2022-08-03T11:27:10.931Z,32.31
2022-08-03T11:32:38.338Z,31.75
2022-08-03T11:38:03.605Z,32.39
2022-08-03T11:43:11.143Z,33.72
2022-08-03T11:48:16.262Z,33.21
2022-08-03T11:53:19.022Z,31.03
2022-08-03T11:59:11.262Z,31.45
2022-08-03T12:03:44.071Z,30.89
2022-08-03T12:08:46.701Z,31.42
2022-08-03T12:14:44.124Z,30.84
2022-08-03T12:19:12.984Z,30.02
2022-08-03T12:24:15.491Z,29.90
2022-08-03T12:29:21.149Z,29.61
2022-08-03T12:34:22.986Z,30.58
2022-08-03T12:39:26.490Z,30.81
2022-08-03T12:44:32.165Z,30.17
2022-08-03T12:49:53.657Z,29.12
2022-08-03T12:54:56.633Z,29.79
2022-08-03T13:00:21.263Z,29.62
2022-08-03T13:05:31.899Z,29.44
2022-08-03T13:10:35.247Z,30.56
2022-08-03T13:15:38.611Z,30.39
2022-08-03T13:20:49.674Z,30.98
2022-08-03T13:25:55.063Z,31.20
2022-08-03T13:30:58.011Z,30.26
2022-08-03T13:36:00.124Z,29.83
2022-08-03T13:41:04.997Z,30.08
2022-08-03T13:46:07.137Z,29.52
2022-08-03T13:51:11.772Z,29.09
2022-08-03T13:56:24.461Z,28.22
2022-08-03T14:01:54.410Z,27.83
2022-08-03T14:17:17.065Z,27.25
2022-08-03T14:22:19.097Z,27.08
2022-08-03T14:27:28.163Z,27.11
2022-08-03T14:32:43.597Z,27.22
2022-08-03T14:37:45.804Z,27.00
2022-08-03T14:42:47.647Z,26.70
2022-08-03T14:50:31.857Z,26.86
2022-08-03T14:53:11.662Z,26.35
2022-08-03T14:58:20.019Z,26.69
2022-08-03T15:03:24.942Z,27.32
2022-08-03T15:08:27.023Z,28.27
2022-08-03T15:13:49.234Z,29.29
2022-08-03T15:19:59.626Z,29.60
2022-08-03T15:24:26.673Z,29.39
2022-08-03T15:30:07.689Z,28.40
2022-08-03T15:34:51.344Z,27.38
2022-08-03T15:39:59.887Z,26.90
2022-08-03T15:45:02.507Z,26.87
2022-08-03T15:50:09.823Z,26.63
2022-08-03T15:55:16.153Z,26.02
2022-08-03T16:00:19.540Z,26.45
2022-08-03T16:05:38.769Z,26.51
2022-08-03T16:10:40.826Z,26.64
2022-08-03T16:15:42.778Z,26.96
2022-08-03T16:20:47.773Z,27.95
2022-08-03T16:25:49.622Z,28.08
2022-08-03T16:30:51.403Z,28.19
2022-08-03T16:36:04.246Z,28.21
2022-08-03T16:41:06.158Z,27.14
2022-08-03T16:46:08.197Z,26.73
2022-08-03T16:51:13.259Z,26.56
2022-08-03T16:56:21.262Z,26.76
2022-08-03T17:01:37.665Z,26.88
2022-08-03T17:06:44.801Z,27.34
2022-08-03T17:11:48.401Z,27.38
2022-08-03T17:16:54.347Z,26.58
2022-08-03T17:22:04.801Z,26.84
2022-08-03T17:27:09.279Z,26.70
2022-08-03T17:32:33.224Z,27.52
2022-08-03T17:38:03.077Z,28.24
2022-08-03T17:44:13.249Z,28.53
2022-08-03T17:48:36.176Z,29.16
2022-08-03T17:53:45.873Z,30.00
2022-08-03T17:58:58.082Z,31.04
2022-08-03T18:04:03.225Z,32.23
2022-08-03T18:10:04.046Z,33.48
2022-08-03T18:14:57.571Z,34.68
2022-08-03T18:20:32.269Z,35.95
2022-08-03T18:25:57.738Z,37.52
2022-08-03T18:31:03.227Z,39.69
2022-08-03T18:36:08.494Z,42.17
2022-08-03T18:41:13.181Z,45.03
2022-08-03T18:46:28.661Z,46.33
2022-08-03T18:51:43.448Z,46.88
2022-08-03T18:56:55.670Z,49.02
2022-08-03T19:02:09.288Z,51.58
2022-08-03T19:07:40.245Z,53.49
2022-08-03T19:13:03.248Z,55.21
2022-08-03T19:18:22.035Z,56.06
2022-08-03T19:23:25.257Z,56.57
2022-08-03T19:28:29.594Z,56.51
2022-08-03T19:33:56.021Z,56.19
2022-08-03T19:38:56.780Z,56.15
2022-08-03T19:43:59.549Z,56.72
2022-08-03T19:49:03.981Z,57.19
2022-08-03T19:54:05.957Z,57.48
2022-08-03T19:59:32.280Z,58.22
2022-08-03T20:04:34.652Z,58.93
2022-08-03T20:09:37.527Z,59.46
2022-08-03T20:14:59.955Z,59.88
2022-08-03T20:20:02.825Z,62.14
2022-08-03T20:25:07.677Z,63.86
2022-08-03T20:30:13.343Z,64.95
2022-08-03T20:35:36.281Z,66.23
2022-08-03T20:40:44.695Z,67.54
2022-08-03T20:46:00.027Z,68.05
2022-08-03T20:51:19.387Z,70.56
2022-08-03T20:56:22.863Z,71.97
2022-08-03T21:13:13.735Z,71.98
2022-08-03T21:17:39.303Z,72.12
2022-08-03T21:22:56.632Z,72.22
2022-08-03T21:27:59.380Z,73.83
2022-08-03T21:33:01.241Z,74.71
2022-08-03T21:38:21.123Z,75.90
2022-08-03T21:43:32.315Z,76.75
2022-08-03T21:48:38.457Z,76.89
2022-08-03T21:54:02.441Z,76.37
2022-08-03T21:59:10.029Z,75.70
2022-08-03T22:04:50.706Z,75.93
2022-08-03T22:09:38.731Z,76.72
2022-08-03T22:14:40.605Z,76.36
2022-08-03T22:19:42.433Z,76.52
2022-08-03T22:24:46.535Z,77.13
2022-08-03T22:29:49.379Z,78.10
2022-08-03T22:34:52.191Z,78.40
2022-08-03T22:39:54.888Z,78.74
2022-08-03T22:44:56.763Z,78.88
2022-08-03T22:50:31.356Z,78.69
2022-08-03T22:55:24.924Z,78.24
2022-08-03T23:00:27.208Z,78.14
2022-08-03T23:06:00.653Z,77.73
2022-08-03T23:10:52.944Z,76.75
2022-08-03T23:15:56.043Z,76.36
2022-08-03T23:20:58.759Z,76.19
2022-08-03T23:26:01.252Z,76.45
2022-08-03T23:31:04.493Z,76.51
2022-08-03T23:36:29.555Z,76.84
2022-08-03T23:41:29.650Z,76.63
2022-08-03T23:46:32.770Z,77.16
2022-08-03T23:51:34.512Z,77.89
2022-08-03T23:57:00.519Z,77.99
